L'astree — FAA2819 — position and weather

sailwx.info

Track history (hours):
 
Tides and Currents Weather Stations Pressure Air Temp Water Temp Dewpoint Dewpoint Depression Visibility Wind Speed Wind Dir Waves Ship Positions

L'astree

Last reported at 2017-Nov-12 15:21 UTC. Time now 2017-Nov-22 20:35 UTC.
Position N 28°58' W 013°32'.
Warning: this ship's position is 10 days out of date.

Length 20 m.

Type: Ship. MMSI: 227106210.

Date/timePositionNaut miles runAvg speedWind from/ knotsBaromVisibWave heightAir tempDewpointWater temp
2017-Nov-12 15:21N 28°58' W 013°32'0 0.8
2017-Nov-12 15:00N 28°58' W 013°32'2 4.1
2017-Nov-12 14:30N 28°56' W 013°34'2 4.6
2017-Nov-12 14:00N 28°55' W 013°36'4 1.2
2017-Nov-12 10:30N 28°57' W 013°32'  
2017-Nov-09 10:32N 28°58' W 013°32'0 0.2
2017-Nov-09 10:30N 28°58' W 013°32'0 0.0
2017-Nov-09 08:11N 28°58' W 013°32'0 0.1
2017-Nov-09 08:00N 28°58' W 013°32'1 1.9
2017-Nov-09 07:30N 28°57' W 013°32'1 3.0
2017-Nov-09 07:00N 28°56' W 013°31'1 2.9
2017-Nov-09 06:30N 28°55' W 013°30'1 2.7
2017-Nov-09 06:00N 28°54' W 013°29'2 4.2
2017-Nov-09 05:30N 28°53' W 013°27'3 5.3
2017-Nov-09 05:00N 28°51' W 013°24'3 5.2
2017-Nov-09 04:30N 28°49' W 013°22'3 5.1
2017-Nov-09 04:00N 28°48' W 013°19'  
Track history (hours):
 
Tides and Currents Weather Stations Pressure Air Temp Water Temp Dewpoint Dewpoint Depression Visibility Wind Speed Wind Dir Waves Ship Positions

L'astree

Last reported at 2017-Nov-12 15:21 UTC. Time now 2017-Nov-22 20:35 UTC.
Position N 28°58' W 013°32'.
Warning: this ship's position is 10 days out of date.

Length 20 m.

Type: Ship. MMSI: 227106210.

Date/timePositionNaut miles runAvg speedWind from/ knotsBaromVisibWave heightAir tempDewpointWater temp
2017-Nov-12 15:21N 28°58' W 013°32'0 0.8
2017-Nov-12 15:00N 28°58' W 013°32'2 4.1
2017-Nov-12 14:30N 28°56' W 013°34'2 4.6
2017-Nov-12 14:00N 28°55' W 013°36'4 1.2
2017-Nov-12 10:30N 28°57' W 013°32'  
2017-Nov-09 10:32N 28°58' W 013°32'0 0.2
2017-Nov-09 10:30N 28°58' W 013°32'0 0.0
2017-Nov-09 08:11N 28°58' W 013°32'0 0.1
2017-Nov-09 08:00N 28°58' W 013°32'1 1.9
2017-Nov-09 07:30N 28°57' W 013°32'1 3.0
2017-Nov-09 07:00N 28°56' W 013°31'1 2.9
2017-Nov-09 06:30N 28°55' W 013°30'1 2.7
2017-Nov-09 06:00N 28°54' W 013°29'2 4.2
2017-Nov-09 05:30N 28°53' W 013°27'3 5.3
2017-Nov-09 05:00N 28°51' W 013°24'3 5.2
2017-Nov-09 04:30N 28°49' W 013°22'3 5.1
2017-Nov-09 04:00N 28°48' W 013°19'  

Dump ship's entire track history